createdAt,value
2019-01-20T00:01:33.533Z,99.90
2019-01-20T00:04:02.862Z,99.90
2019-01-20T00:06:32.227Z,99.90
2019-01-20T00:09:01.585Z,99.90
2019-01-20T00:11:30.932Z,99.90
2019-01-20T00:14:00.263Z,99.90
2019-01-20T00:16:29.606Z,99.90
2019-01-20T00:18:58.931Z,99.90
2019-01-20T00:21:28.292Z,99.90
2019-01-20T00:23:57.647Z,99.90
2019-01-20T00:26:26.997Z,99.90
2019-01-20T00:28:56.362Z,99.90
2019-01-20T00:31:25.746Z,99.90
2019-01-20T00:33:55.079Z,99.90
2019-01-20T00:36:24.479Z,99.90
2019-01-20T00:38:53.815Z,99.90
2019-01-20T00:41:24.405Z,99.90
2019-01-20T00:43:53.898Z,99.90
2019-01-20T00:46:23.272Z,99.90
2019-01-20T00:48:52.591Z,99.90
2019-01-20T00:51:21.911Z,99.90
2019-01-20T00:53:51.275Z,99.90
2019-01-20T00:56:20.611Z,99.90
2019-01-20T00:58:49.962Z,99.90
2019-01-20T01:01:19.285Z,99.90
2019-01-20T01:03:48.634Z,99.90
2019-01-20T01:06:17.961Z,99.90
2019-01-20T01:08:47.311Z,99.90
2019-01-20T01:11:16.639Z,99.90
2019-01-20T01:13:46.001Z,99.90
2019-01-20T01:16:15.323Z,99.90
2019-01-20T01:18:44.715Z,99.90
2019-01-20T01:21:14.043Z,99.90
2019-01-20T01:23:43.411Z,99.90
2019-01-20T01:26:12.730Z,99.90
2019-01-20T01:28:42.076Z,99.90
2019-01-20T01:31:11.411Z,99.90
2019-01-20T01:33:40.762Z,99.90
2019-01-20T01:36:10.082Z,99.90
2019-01-20T01:38:39.434Z,99.90
2019-01-20T01:41:08.767Z,99.90
2019-01-20T01:43:38.125Z,99.90
2019-01-20T01:46:07.494Z,99.90
2019-01-20T01:48:36.859Z,99.90
2019-01-20T01:51:06.191Z,99.90
2019-01-20T01:53:35.543Z,99.90
2019-01-20T01:56:04.862Z,99.90
2019-01-20T01:58:34.255Z,99.90
2019-01-20T02:01:03.582Z,99.90
2019-01-20T02:03:32.902Z,99.90
2019-01-20T02:06:02.251Z,99.90
2019-01-20T02:08:31.571Z,99.90
2019-01-20T02:11:00.929Z,99.90
2019-01-20T02:13:30.247Z,99.90
2019-01-20T02:15:59.686Z,99.90
2019-01-20T02:18:29.018Z,99.90
2019-01-20T02:20:58.370Z,99.90
2019-01-20T02:23:27.712Z,99.90
2019-01-20T02:25:57.062Z,99.90
2019-01-20T02:28:26.394Z,99.90
2019-01-20T02:30:55.742Z,99.90
2019-01-20T02:33:25.071Z,99.90
2019-01-20T02:35:54.488Z,99.90
2019-01-20T02:38:23.823Z,99.90
2019-01-20T02:40:53.170Z,99.90
2019-01-20T02:43:22.503Z,99.90
2019-01-20T02:45:51.855Z,99.90
2019-01-20T02:48:21.214Z,99.90
2019-01-20T02:50:50.572Z,99.90
2019-01-20T02:53:19.891Z,99.90
2019-01-20T02:55:49.246Z,99.90
2019-01-20T02:58:18.575Z,99.90
2019-01-20T03:00:47.925Z,99.90
2019-01-20T03:03:17.338Z,99.90
2019-01-20T03:05:46.703Z,99.90
2019-01-20T03:08:16.055Z,99.90
2019-01-20T03:10:45.417Z,99.90
2019-01-20T03:13:14.738Z,99.90
2019-01-20T03:15:44.110Z,99.90
2019-01-20T03:18:13.467Z,99.90
2019-01-20T03:20:42.828Z,99.90
2019-01-20T03:23:12.173Z,99.90
2019-01-20T03:25:41.531Z,99.90
2019-01-20T03:28:10.907Z,99.90
2019-01-20T03:30:40.244Z,99.90
2019-01-20T03:33:09.597Z,99.90
2019-01-20T03:35:38.926Z,99.90
2019-01-20T03:38:08.270Z,99.90
2019-01-20T03:40:37.599Z,99.90
2019-01-20T03:43:06.977Z,99.90
2019-01-20T03:45:36.303Z,99.90
2019-01-20T03:48:06.235Z,99.90
2019-01-20T03:50:35.570Z,99.90
2019-01-20T03:53:04.972Z,99.90
2019-01-20T03:55:34.411Z,99.90
2019-01-20T03:58:03.867Z,99.90
2019-01-20T04:00:33.200Z,99.90
2019-01-20T04:03:03.724Z,99.90
2019-01-20T04:05:33.042Z,99.90
2019-01-20T04:08:02.460Z,99.90
2019-01-20T04:10:31.783Z,99.90
2019-01-20T04:13:01.131Z,99.90
2019-01-20T04:15:30.455Z,99.90
2019-01-20T04:17:59.734Z,99.90
2019-01-20T04:20:29.063Z,99.90
2019-01-20T04:22:58.446Z,99.90
2019-01-20T04:25:27.819Z,99.90
2019-01-20T04:27:57.176Z,99.90
2019-01-20T04:30:26.527Z,99.90
2019-01-20T04:32:55.859Z,99.90
2019-01-20T04:35:25.207Z,99.90
2019-01-20T04:37:54.538Z,99.90
2019-01-20T04:40:24.587Z,99.90
2019-01-20T04:42:53.923Z,99.90
2019-01-20T04:45:23.383Z,99.90
2019-01-20T04:47:52.712Z,99.90
2019-01-20T04:50:23.554Z,99.90
2019-01-20T04:52:53.294Z,99.90
2019-01-20T04:55:22.819Z,99.90
2019-01-20T04:57:56.043Z,99.90
2019-01-20T05:00:27.171Z,99.90
2019-01-20T05:02:56.545Z,99.90
2019-01-20T05:05:26.025Z,99.90
2019-01-20T05:07:55.382Z,99.90
2019-01-20T05:10:24.769Z,99.90
2019-01-20T05:12:54.131Z,99.90
2019-01-20T05:15:24.848Z,99.90
2019-01-20T05:17:54.207Z,99.90
2019-01-20T05:20:23.641Z,99.90
2019-01-20T05:22:53.030Z,99.90
2019-01-20T05:25:22.421Z,99.90
2019-01-20T05:27:51.830Z,99.90
2019-01-20T05:30:27.370Z,99.90
2019-01-20T05:32:56.738Z,99.90
2019-01-20T05:35:26.122Z,99.90
2019-01-20T05:37:55.496Z,99.90
2019-01-20T05:40:24.967Z,99.90
2019-01-20T05:42:54.358Z,99.90
2019-01-20T05:45:25.301Z,99.90
2019-01-20T05:47:55.539Z,99.90
2019-01-20T05:50:24.908Z,99.90
2019-01-20T05:52:54.307Z,99.90
2019-01-20T05:55:23.709Z,99.90
2019-01-20T05:57:53.108Z,99.90
2019-01-20T06:00:30.866Z,99.90
2019-01-20T06:03:00.254Z,99.90
2019-01-20T06:05:29.619Z,99.90
2019-01-20T06:07:59.008Z,99.90
2019-01-20T06:10:28.382Z,99.90
2019-01-20T06:12:57.754Z,99.90
2019-01-20T06:15:27.127Z,99.90
2019-01-20T06:17:56.522Z,99.90
2019-01-20T06:20:25.891Z,99.90
2019-01-20T06:22:55.342Z,99.90
2019-01-20T06:25:24.714Z,99.90
2019-01-20T06:27:54.086Z,99.90
2019-01-20T06:30:26.006Z,99.90
2019-01-20T06:32:55.414Z,99.90
2019-01-20T06:35:24.794Z,99.90
2019-01-20T06:37:54.245Z,99.90
2019-01-20T06:40:23.619Z,99.90
2019-01-20T06:42:53.006Z,99.90
2019-01-20T06:45:22.370Z,99.90
2019-01-20T06:47:51.755Z,99.90
2019-01-20T06:50:21.640Z,99.90
2019-01-20T06:52:51.051Z,99.90
2019-01-20T06:55:21.785Z,99.90
2019-01-20T06:57:51.305Z,99.90
2019-01-20T07:00:22.271Z,99.90
2019-01-20T07:02:51.639Z,99.90
2019-01-20T07:05:21.119Z,99.90
2019-01-20T07:07:50.855Z,99.90
2019-01-20T07:10:20.851Z,99.90
2019-01-20T07:12:50.235Z,99.90
2019-01-20T07:15:24.107Z,99.90
2019-01-20T07:17:53.695Z,99.90
2019-01-20T07:20:23.087Z,99.90
2019-01-20T07:22:52.479Z,99.90
2019-01-20T07:25:22.071Z,99.90
2019-01-20T07:27:51.430Z,99.90
2019-01-20T07:30:22.627Z,99.90
2019-01-20T07:32:51.992Z,99.90
2019-01-20T07:35:21.545Z,99.90
2019-01-20T07:37:51.158Z,99.90
2019-01-20T07:40:22.210Z,99.90
2019-01-20T07:42:51.595Z,99.90
2019-01-20T07:45:21.035Z,99.90
2019-01-20T07:47:50.391Z,99.90
2019-01-20T07:50:27.079Z,99.90
2019-01-20T07:52:56.461Z,99.90
2019-01-20T07:55:25.859Z,99.90
2019-01-20T07:57:55.242Z,99.90
2019-01-20T08:00:25.842Z,99.90
2019-01-20T08:02:55.286Z,99.90
2019-01-20T08:05:24.680Z,99.90
2019-01-20T08:07:54.031Z,99.90
2019-01-20T08:10:28.068Z,99.90
2019-01-20T08:12:57.450Z,99.90
2019-01-20T08:15:26.939Z,99.90
2019-01-20T08:17:56.300Z,99.90
2019-01-20T08:20:25.926Z,99.90
2019-01-20T08:22:55.327Z,99.90
2019-01-20T08:25:24.742Z,99.90
2019-01-20T08:27:54.110Z,99.90
2019-01-20T08:30:25.460Z,99.90
2019-01-20T08:32:55.107Z,99.90
2019-01-20T08:35:24.692Z,99.90
2019-01-20T08:37:54.063Z,99.90
2019-01-20T08:40:25.629Z,99.90
2019-01-20T08:42:54.943Z,99.90
2019-01-20T08:45:49.171Z,95.70
2019-01-20T08:48:20.263Z,91.50
2019-01-20T08:50:49.710Z,86.70
2019-01-20T08:53:19.062Z,83.20
2019-01-20T08:55:48.442Z,80.20
2019-01-20T08:58:17.812Z,73.40
2019-01-20T09:00:47.231Z,73.80
2019-01-20T09:03:16.591Z,72.10
2019-01-20T09:05:45.955Z,73.50
2019-01-20T09:08:15.339Z,71.90
2019-01-20T09:10:44.702Z,70.60
2019-01-20T09:13:14.090Z,70.90
2019-01-20T09:15:43.499Z,72.20
2019-01-20T09:18:12.931Z,70.90
2019-01-20T09:20:42.301Z,69.20
2019-01-20T09:23:11.707Z,69.30
2019-01-20T09:25:41.074Z,65.80
2019-01-20T09:28:10.463Z,70.30
2019-01-20T09:30:39.827Z,65.60
2019-01-20T09:33:09.245Z,73.10
2019-01-20T09:35:38.602Z,71.40
2019-01-20T09:38:07.995Z,74.00
2019-01-20T09:40:37.367Z,74.90
2019-01-20T09:43:06.754Z,72.80
2019-01-20T09:45:36.662Z,82.20
2019-01-20T09:48:06.319Z,79.90
2019-01-20T09:50:35.691Z,76.90
2019-01-20T09:53:05.077Z,77.50
2019-01-20T09:55:34.580Z,79.40
2019-01-20T09:58:03.968Z,84.10
2019-01-20T10:00:33.547Z,81.40
2019-01-20T10:03:02.959Z,83.10
2019-01-20T10:05:32.335Z,80.70
2019-01-20T10:08:01.727Z,79.20
2019-01-20T10:10:31.087Z,76.60
2019-01-20T10:13:00.455Z,74.60
2019-01-20T10:15:29.843Z,72.90
2019-01-20T10:17:59.216Z,72.80
2019-01-20T10:20:30.255Z,74.10
2019-01-20T10:22:59.654Z,72.50
2019-01-20T10:25:29.039Z,69.20
2019-01-20T10:27:58.410Z,70.60
2019-01-20T10:30:32.709Z,72.40
2019-01-20T10:33:03.427Z,73.10
2019-01-20T10:35:38.695Z,71.80
2019-01-20T10:38:09.346Z,70.60
2019-01-20T10:40:38.841Z,69.00
2019-01-20T10:43:08.211Z,67.70
2019-01-20T10:45:37.594Z,71.60
2019-01-20T10:48:07.227Z,72.50
2019-01-20T10:50:36.743Z,70.40
2019-01-20T10:53:06.567Z,68.80
2019-01-20T10:55:35.950Z,67.10
2019-01-20T10:58:05.871Z,66.30
2019-01-20T11:00:37.403Z,65.50
2019-01-20T11:03:07.470Z,62.20
2019-01-20T11:05:36.876Z,65.70
2019-01-20T11:08:06.338Z,65.10
2019-01-20T11:10:35.826Z,66.60
2019-01-20T11:13:05.599Z,63.60
2019-01-20T11:15:34.980Z,62.40
2019-01-20T11:18:05.419Z,66.50
2019-01-20T11:20:34.810Z,67.50
2019-01-20T11:23:04.194Z,69.60
2019-01-20T11:25:36.423Z,64.90
2019-01-20T11:28:05.787Z,65.60
2019-01-20T11:30:35.170Z,67.90
2019-01-20T11:33:04.638Z,66.70
2019-01-20T11:35:34.063Z,66.30
2019-01-20T11:38:03.397Z,66.90
2019-01-20T11:40:32.781Z,63.90
2019-01-20T11:43:02.138Z,66.70
2019-01-20T11:45:31.687Z,67.50
2019-01-20T11:48:01.055Z,64.10
2019-01-20T11:50:30.426Z,66.30
2019-01-20T11:52:59.810Z,66.60
2019-01-20T11:55:29.295Z,67.50
2019-01-20T11:57:58.698Z,68.10
2019-01-20T12:00:35.601Z,67.90
2019-01-20T12:03:05.747Z,66.20
2019-01-20T12:05:36.793Z,67.80
2019-01-20T12:08:06.591Z,66.70
2019-01-20T12:10:36.184Z,67.10
2019-01-20T12:13:07.603Z,70.70
2019-01-20T12:15:37.082Z,79.00
2019-01-20T12:18:06.807Z,83.50
2019-01-20T12:20:36.190Z,86.50
2019-01-20T12:23:05.687Z,92.90
2019-01-20T12:25:35.164Z,94.90
2019-01-20T12:28:04.557Z,99.20
2019-01-20T12:30:35.651Z,99.90
2019-01-20T12:33:05.437Z,99.90
2019-01-20T12:35:34.820Z,99.90
2019-01-20T12:38:04.355Z,99.90
2019-01-20T12:41:01.936Z,99.90
2019-01-20T12:43:31.387Z,99.90
2019-01-20T12:46:00.811Z,99.90
2019-01-20T12:48:30.203Z,99.90
2019-01-20T12:50:59.566Z,99.90
2019-01-20T12:53:28.955Z,99.90
2019-01-20T12:55:58.322Z,99.90
2019-01-20T12:58:27.710Z,99.90
2019-01-20T13:00:57.079Z,99.90
2019-01-20T13:03:26.466Z,99.90
2019-01-20T13:05:55.833Z,99.90
2019-01-20T13:08:25.223Z,99.90
2019-01-20T13:10:54.584Z,99.90
2019-01-20T13:13:23.970Z,99.90
2019-01-20T13:15:53.344Z,99.90
2019-01-20T13:18:22.735Z,99.90
2019-01-20T13:20:52.099Z,99.90
2019-01-20T13:23:21.516Z,99.90
2019-01-20T13:25:50.884Z,99.90
2019-01-20T13:28:20.270Z,99.90
2019-01-20T13:30:49.633Z,99.90
2019-01-20T13:33:18.995Z,99.90
2019-01-20T13:35:48.519Z,99.90
2019-01-20T13:38:22.675Z,99.90
2019-01-20T13:41:19.666Z,99.90
2019-01-20T13:43:49.059Z,99.90
2019-01-20T13:46:18.419Z,99.90
2019-01-20T13:48:47.807Z,99.90
2019-01-20T13:51:17.171Z,99.90
2019-01-20T13:53:46.539Z,99.90
2019-01-20T13:56:15.927Z,99.90
2019-01-20T13:58:45.292Z,99.90
2019-01-20T14:01:14.686Z,99.90
2019-01-20T14:03:44.046Z,99.90
2019-01-20T14:06:13.431Z,99.90
2019-01-20T14:08:44.388Z,99.90
2019-01-20T14:11:13.925Z,99.90
2019-01-20T14:13:43.310Z,99.90
2019-01-20T14:16:12.827Z,99.90
2019-01-20T14:18:45.494Z,99.90
2019-01-20T14:21:13.241Z,99.90
2019-01-20T14:23:42.660Z,99.90
2019-01-20T14:26:12.058Z,99.90
2019-01-20T14:28:41.422Z,99.90
2019-01-20T14:31:10.919Z,99.90
2019-01-20T14:33:40.287Z,99.90
2019-01-20T14:36:09.779Z,99.90
2019-01-20T14:38:39.144Z,99.90
2019-01-20T14:41:08.534Z,99.90
2019-01-20T14:43:37.978Z,99.90
2019-01-20T14:46:07.379Z,99.90
2019-01-20T14:48:36.799Z,99.90
2019-01-20T14:51:06.187Z,99.90
2019-01-20T14:53:35.555Z,99.90
2019-01-20T14:56:04.966Z,99.90
2019-01-20T14:58:34.326Z,99.90
2019-01-20T15:01:03.821Z,99.90
2019-01-20T15:03:33.187Z,99.90
2019-01-20T15:06:02.576Z,99.90
2019-01-20T15:08:31.949Z,99.90
2019-01-20T15:11:01.383Z,99.90
2019-01-20T15:13:30.745Z,99.90
2019-01-20T15:16:00.111Z,99.90
2019-01-20T15:18:29.494Z,99.90
2019-01-20T15:20:58.901Z,99.90
2019-01-20T15:23:28.310Z,99.90
2019-01-20T15:25:57.679Z,99.90
2019-01-20T15:28:27.071Z,99.90
2019-01-20T15:30:56.439Z,99.90
2019-01-20T15:33:25.823Z,99.90
2019-01-20T15:35:55.195Z,99.90
2019-01-20T15:38:24.595Z,99.90
2019-01-20T15:40:53.975Z,99.90
2019-01-20T15:43:23.394Z,99.90
2019-01-20T15:45:52.762Z,99.90
2019-01-20T15:48:22.151Z,99.90
2019-01-20T15:50:51.523Z,99.90
2019-01-20T15:53:20.915Z,99.90
2019-01-20T15:55:50.279Z,99.90
2019-01-20T15:58:19.669Z,99.90
2019-01-20T16:00:49.018Z,99.90
2019-01-20T16:03:18.399Z,99.90
2019-01-20T16:05:47.778Z,99.90
2019-01-20T16:08:17.159Z,99.90
2019-01-20T16:10:46.514Z,99.90
2019-01-20T16:13:17.674Z,99.90
2019-01-20T16:15:46.971Z,99.90
2019-01-20T16:18:16.351Z,99.90
2019-01-20T16:20:45.710Z,99.90
2019-01-20T16:23:15.163Z,99.90
2019-01-20T16:25:44.531Z,99.90
2019-01-20T16:28:13.919Z,99.90
2019-01-20T16:30:43.272Z,99.90
2019-01-20T16:33:12.671Z,99.90
2019-01-20T16:35:42.045Z,99.90
2019-01-20T16:38:12.223Z,99.90
2019-01-20T16:40:41.571Z,99.90
2019-01-20T16:43:10.934Z,99.90
2019-01-20T16:45:45.234Z,99.90
2019-01-20T16:48:14.656Z,99.90
2019-01-20T16:50:44.039Z,99.90
2019-01-20T16:53:13.406Z,99.90
2019-01-20T16:55:42.794Z,99.90
2019-01-20T16:58:12.355Z,99.90
2019-01-20T17:00:43.623Z,99.90
2019-01-20T17:03:13.004Z,99.90
2019-01-20T17:05:42.399Z,99.90
2019-01-20T17:08:12.010Z,99.90
2019-01-20T17:10:42.626Z,99.90
2019-01-20T17:13:12.415Z,99.90
2019-01-20T17:15:43.815Z,99.90
2019-01-20T17:18:14.830Z,99.90
2019-01-20T17:20:44.373Z,99.90
2019-01-20T17:23:13.730Z,99.90
2019-01-20T17:25:43.239Z,99.90
2019-01-20T17:28:12.626Z,99.90
2019-01-20T17:30:42.215Z,99.90
2019-01-20T17:33:12.589Z,99.90
2019-01-20T17:35:41.972Z,99.90
2019-01-20T17:38:11.334Z,99.90
2019-01-20T17:40:40.714Z,99.90
2019-01-20T17:43:10.102Z,99.90
2019-01-20T17:45:48.544Z,99.90
2019-01-20T17:48:15.143Z,99.90
2019-01-20T17:50:49.149Z,99.90
2019-01-20T17:53:19.515Z,99.90
2019-01-20T17:55:50.581Z,99.90
2019-01-20T17:58:21.569Z,99.90
2019-01-20T18:00:55.929Z,99.90
2019-01-20T18:03:28.568Z,99.90
2019-01-20T18:06:00.359Z,99.90
2019-01-20T18:08:32.557Z,99.90
2019-01-20T18:11:05.195Z,99.90
2019-01-20T18:13:36.264Z,99.90
2019-01-20T18:16:07.427Z,99.90
2019-01-20T18:18:41.527Z,99.90
2019-01-20T18:21:10.905Z,99.90
2019-01-20T18:23:40.291Z,99.90
2019-01-20T18:26:09.676Z,99.90
2019-01-20T18:28:39.059Z,99.90
2019-01-20T18:31:08.432Z,99.90
2019-01-20T18:33:37.818Z,99.90
2019-01-20T18:36:07.183Z,99.90
2019-01-20T18:38:36.583Z,99.90
2019-01-20T18:41:05.945Z,99.90
2019-01-20T18:43:35.350Z,99.90
2019-01-20T18:46:04.710Z,99.90
2019-01-20T18:48:35.423Z,99.90
2019-01-20T18:51:04.799Z,99.90
2019-01-20T18:53:34.198Z,99.90
2019-01-20T18:56:05.283Z,99.90
2019-01-20T18:58:34.738Z,99.90
2019-01-20T19:01:04.224Z,99.90
2019-01-20T19:03:33.614Z,99.90
2019-01-20T19:06:02.975Z,99.90
2019-01-20T19:08:32.371Z,99.90
2019-01-20T19:11:01.748Z,99.90
2019-01-20T19:13:31.310Z,99.90
2019-01-20T19:16:00.675Z,99.90
2019-01-20T19:18:30.076Z,99.90
2019-01-20T19:20:59.445Z,99.90
2019-01-20T19:23:28.854Z,99.90
2019-01-20T19:25:58.254Z,99.90
2019-01-20T19:28:27.642Z,99.90
2019-01-20T19:30:57.035Z,99.90
2019-01-20T19:33:26.423Z,99.90
2019-01-20T19:35:55.790Z,99.90
2019-01-20T19:38:25.154Z,99.90
2019-01-20T19:40:54.548Z,99.90
2019-01-20T19:43:23.907Z,99.90
2019-01-20T19:45:53.306Z,99.90
2019-01-20T19:48:22.668Z,99.90
2019-01-20T19:50:52.071Z,99.90
2019-01-20T19:53:21.452Z,99.90
2019-01-20T19:55:50.860Z,99.90
2019-01-20T19:58:20.219Z,99.90
2019-01-20T20:00:49.602Z,99.90
2019-01-20T20:03:18.971Z,99.90
2019-01-20T20:05:48.351Z,99.90
2019-01-20T20:08:17.718Z,99.90
2019-01-20T20:10:47.154Z,99.90
2019-01-20T20:13:16.471Z,99.90
2019-01-20T20:15:45.856Z,99.90
2019-01-20T20:18:15.226Z,99.90
2019-01-20T20:20:44.619Z,99.90
2019-01-20T20:23:13.974Z,99.90
2019-01-20T20:25:43.385Z,99.90
2019-01-20T20:28:12.782Z,99.90
2019-01-20T20:30:42.175Z,99.90
2019-01-20T20:33:11.557Z,99.90
2019-01-20T20:35:40.953Z,99.90
2019-01-20T20:38:10.314Z,99.90
2019-01-20T20:40:39.702Z,99.90
2019-01-20T20:43:09.062Z,99.90
2019-01-20T20:45:38.463Z,99.90
2019-01-20T20:48:07.824Z,99.90
2019-01-20T20:50:37.212Z,99.90
2019-01-20T20:53:06.570Z,99.90
2019-01-20T20:55:35.970Z,99.90
2019-01-20T20:58:05.612Z,99.90
2019-01-20T21:00:37.846Z,99.90
2019-01-20T21:03:21.729Z,99.90
2019-01-20T21:05:51.128Z,99.90
2019-01-20T21:08:20.490Z,99.90
2019-01-20T21:10:49.873Z,99.90
2019-01-20T21:13:19.254Z,99.90
2019-01-20T21:15:48.670Z,99.90
2019-01-20T21:18:18.050Z,99.90
2019-01-20T21:20:47.442Z,99.90
2019-01-20T21:23:16.810Z,99.90
2019-01-20T21:25:46.225Z,99.90
2019-01-20T21:28:15.583Z,99.90
2019-01-20T21:30:44.985Z,99.90
2019-01-20T21:33:14.351Z,99.90
2019-01-20T21:35:43.795Z,99.90
2019-01-20T21:38:13.135Z,99.90
2019-01-20T21:40:42.538Z,99.90
2019-01-20T21:43:11.905Z,99.90
2019-01-20T21:45:41.342Z,99.90
2019-01-20T21:48:10.708Z,99.90
2019-01-20T21:50:40.106Z,99.90
2019-01-20T21:53:09.493Z,99.90
2019-01-20T21:55:38.865Z,99.90
2019-01-20T21:58:08.261Z,99.90
2019-01-20T22:00:37.618Z,99.90
2019-01-20T22:03:07.107Z,99.90
2019-01-20T22:05:36.517Z,99.90
2019-01-20T22:08:05.848Z,99.90
2019-01-20T22:10:35.212Z,99.90
2019-01-20T22:13:04.598Z,99.90
2019-01-20T22:15:33.954Z,99.90
2019-01-20T22:18:03.326Z,99.90
2019-01-20T22:20:32.639Z,99.90
2019-01-20T22:23:02.027Z,99.90
2019-01-20T22:25:31.418Z,99.90
2019-01-20T22:28:00.878Z,99.90
2019-01-20T22:30:30.247Z,99.90
2019-01-20T22:32:59.630Z,99.90
2019-01-20T22:35:29.065Z,99.90
2019-01-20T22:37:58.446Z,99.90
2019-01-20T22:40:27.818Z,99.90
2019-01-20T22:42:57.210Z,99.90
2019-01-20T22:45:29.348Z,99.90
2019-01-20T22:47:58.746Z,99.90
2019-01-20T22:50:28.182Z,99.90
2019-01-20T22:52:57.600Z,99.90
2019-01-20T22:55:26.964Z,99.90
2019-01-20T22:57:56.352Z,99.90
2019-01-20T23:00:45.618Z,99.90
2019-01-20T23:03:15.023Z,99.90
2019-01-20T23:05:44.387Z,99.90
2019-01-20T23:08:13.791Z,99.90
2019-01-20T23:10:43.140Z,99.90
2019-01-20T23:13:12.563Z,99.90
2019-01-20T23:15:41.886Z,99.90
2019-01-20T23:18:11.399Z,99.90
2019-01-20T23:20:40.771Z,99.90
2019-01-20T23:23:10.143Z,99.90
2019-01-20T23:25:39.547Z,99.90
2019-01-20T23:28:08.915Z,99.90
2019-01-20T23:30:38.290Z,99.90
2019-01-20T23:33:07.654Z,99.90
2019-01-20T23:35:37.038Z,99.90
2019-01-20T23:38:06.446Z,99.90
2019-01-20T23:40:35.826Z,99.90
2019-01-20T23:43:05.799Z,99.90
2019-01-20T23:45:35.196Z,99.90
2019-01-20T23:48:04.655Z,99.90
2019-01-20T23:50:34.034Z,99.90
2019-01-20T23:53:03.402Z,99.90
2019-01-20T23:55:32.783Z,99.90
2019-01-20T23:58:02.152Z,99.90
